Storm Events Database

Event Details

Event Thunderstorm Wind
Magnitude 60 kts.
State TENNESSEE
County/Area LAWRENCE
WFO OHX
Begin Date 05/02/2010 13:27:00 CST-6
Begin Range 5
Begin Azimuth NW
Begin Location HENRYVILLE
Begin Lat/Lon 35.44/-87.47
End Date 05/02/2010 13:27:00 CST-6
End Range 2
End Azimuth W
End Location SUMMERTOWN
End Lat/Lon 35.43/-87.33
Deaths Direct/Indirect 0/0 (fatality details below, when available...)
Injuries Direct/Indirect 0/0
Property Damage 15.00K
Crop Damage
Episode Narrative A frontal boundary setup across Western and Middle Tennessee late Friday night (April 30), and remained through the weekend. A persistent southerly flow fed moisture into the area and precipitable water values rose to almost 2 inches, based on data from KOHX upper air soundings. As a series of shortwaves moved through, a band of showers and thunderstorms developed and remained nearly stationary for much of the day on Saturday, May 1st and Sunday, May 2nd, resulting in widespread record flooding across much of Middle Tennessee. Some of these thunderstorms became severe also, resulting in thunderstorm wind damage and seven confirmed tornadoes across Middle Tennessee.
Event Narrative Power lines downed on Railroad Bed Pike in Northern Lawrence County. Three poles were also downed.


All events for this episode:

Location County/Zone St. Date Time T.Z. Type Mag Dth Inj PrD CrD
Totals: 18 1 1.572B 76.00K
MODEL STEWART CO. TN 05/01/2010 02:15 CST-6 Thunderstorm Wind 70 kts. EG 0 0 250.00K 0.00K
FOREST HOME WILLIAMSON CO. TN 05/01/2010 06:28 CST-6 Thunderstorm Wind 60 kts. EG 0 0 30.00K 0.00K
FT CAMPBELL MONTGOMERY CO. TN 05/01/2010 09:25 CST-6 Hail 1.00 in. 0 0 0.00K 0.00K
WAVERLY HUMPHREYS CO. TN 05/01/2010 10:00 CST-6 Flash Flood 0 0 25.00K 1.00K
SPOT HICKMAN CO. TN 05/01/2010 10:00 CST-6 Flash Flood 0 0 50.00K 1.00K
CARLISLE STEWART CO. TN 05/01/2010 10:42 CST-6 Flood 2 0 100.00K 0.00K
RURAL HILL DAVIDSON CO. TN 05/01/2010 10:45 CST-6 Flood 10 0 1.500B 1.00K
WALNUT GROVE DAVIDSON CO. TN 05/01/2010 10:45 CST-6 Flash Flood 1 0 25.000M 0.00K
ASHLAND CITY CHEATHAM CO. TN 05/01/2010 11:55 CST-6 Thunderstorm Wind 50 kts. EG 0 0 4.00K 0.00K
BUFFALO HUMPHREYS CO. TN 05/01/2010 11:59 CST-6 Flash Flood 0 0 2.200M 1.00K
ROCKDALE MAURY CO. TN 05/01/2010 12:10 CST-6 Flash Flood 0 0 50.00K 1.00K
EWINGVILLE WILLIAMSON CO. TN 05/01/2010 12:30 CST-6 Flash Flood 0 0 25.00K 1.00K
CROSS KEYS WILLIAMSON CO. TN 05/01/2010 12:30 CST-6 Flash Flood 0 0 50.00K 1.00K
PEYTONSVILLE WILLIAMSON CO. TN 05/01/2010 12:30 CST-6 Flash Flood 1 0 50.00K 1.00K
MADISON DAVIDSON CO. TN 05/01/2010 12:33 CST-6 Thunderstorm Wind 55 kts. EG 0 0 10.00K 0.00K
MALLORYS WILLIAMSON CO. TN 05/01/2010 12:50 CST-6 Flash Flood 0 0 15.00K 1.00K
MT JULIET WILSON CO. TN 05/01/2010 13:18 CST-6 Flood 0 0 0.00K 0.00K
GREENLAWN WILSON CO. TN 05/01/2010 13:18 CST-6 Flood 0 0 0.00K 0.00K
LIBERTY DEKALB CO. TN 05/01/2010 13:47 CST-6 Thunderstorm Wind 50 kts. MG 0 0 0.00K 0.00K
DODSON BRANCH JACKSON CO. TN 05/01/2010 14:19 CST-6 Thunderstorm Wind 60 kts. EG 0 0 3.00K 0.00K
ST JOSEPH LAWRENCE CO. TN 05/01/2010 15:05 CST-6 Thunderstorm Wind 60 kts. EG 0 0 100.00K 0.00K
FLATWOODS LAWRENCE CO. TN 05/01/2010 15:18 CST-6 Flash Flood 0 0 25.00K 1.00K
LORETTO LAWRENCE CO. TN 05/01/2010 15:23 CST-6 Tornado EF0 0 0 10.00K 1.00K
FT CAMPBELL MONTGOMERY CO. TN 05/01/2010 15:40 CST-6 Flood 1 0 1.900M 1.00K
EVINS MILL DEKALB CO. TN 05/01/2010 15:40 CST-6 Thunderstorm Wind 55 kts. EG 0 0 10.00K 0.00K
SUMMERTOWN LAWRENCE CO. TN 05/01/2010 16:00 CST-6 Flash Flood 0 0 50.00K 1.00K
SUMAC GILES CO. TN 05/01/2010 16:00 CST-6 Thunderstorm Wind 55 kts. EG 0 0 10.00K 0.00K
OSTELLA MARSHALL CO. TN 05/01/2010 16:22 CST-6 Thunderstorm Wind 52 kts. EG 0 0 1.00K 0.00K
LA VERGNE RUTHERFORD CO. TN 05/01/2010 16:28 CST-6 Flood 0 0 3.500M 1.00K
CROSSVILLE CUMBERLAND CO. TN 05/01/2010 16:41 CST-6 Thunderstorm Wind 53 kts. EG 0 0 1.00K 0.00K
ALLARDT FENTRESS CO. TN 05/01/2010 16:58 CST-6 Flood 0 0 25.00K 1.00K
DIXON SPGS SMITH CO. TN 05/01/2010 16:58 CST-6 Flood 0 0 1.600M 1.00K
PORT ROYAL MONTGOMERY CO. TN 05/01/2010 21:25 CST-6 Hail 1.00 in. 0 0 0.00K 0.00K
BEARDSTOWN PERRY CO. TN 05/02/2010 03:45 CST-6 Tornado EF1 0 0 150.00K 10.00K
COBLE HICKMAN CO. TN 05/02/2010 04:00 CST-6 Tornado EF2 0 1 600.00K 10.00K
GRAHAM STATION HICKMAN CO. TN 05/02/2010 04:17 CST-6 Tornado EF2 0 0 200.00K 10.00K
HOHENWALD BAKER ARPT LEWIS CO. TN 05/02/2010 04:20 CST-6 Thunderstorm Wind 55 kts. EG 0 0 10.00K 0.00K
CRAGGIE HOPE CHEATHAM CO. TN 05/02/2010 04:50 CST-6 Thunderstorm Wind 60 kts. EG 0 0 10.00K 0.00K
LITTLE CREEK DAVIDSON CO. TN 05/02/2010 05:07 CST-6 Tornado EF1 0 0 500.00K 0.00K
ROCKLAND SUMNER CO. TN 05/02/2010 05:17 CST-6 Tornado EF1 0 0 450.00K 15.00K
HENDERSONVILLE SUMNER CO. TN 05/02/2010 05:27 CST-6 Thunderstorm Wind 60 kts. EG 0 0 10.00K 0.00K
CEDAR GROVE HICKMAN CO. TN 05/02/2010 05:45 CST-6 Tornado EF1 0 0 15.00K 0.00K
BERRY HILL DAVIDSON CO. TN 05/02/2010 06:28 CST-6 Thunderstorm Wind 56 kts. EG 0 0 0.00K 0.00K
ORLINDA ROBERTSON CO. TN 05/02/2010 06:29 CST-6 Flood 0 0 0.00K 0.00K
RED BOILING SPGS MACON CO. TN 05/02/2010 07:20 CST-6 Thunderstorm Wind 55 kts. EG 0 0 5.00K 0.00K
BRANSFORD SUMNER CO. TN 05/02/2010 07:42 CST-6 Flood 0 0 5.80K 1.00K
LOBELVILLE PERRY CO. TN 05/02/2010 08:00 CST-6 Flood 2 0 2.800M 1.00K
BIG SANDY BENTON CO. TN 05/02/2010 08:00 CST-6 Flood 0 0 300.00K 1.00K
CELINA CLAY CO. TN 05/02/2010 08:22 CST-6 Thunderstorm Wind 50 kts. EG 0 0 1.00K 0.00K
HOHENWALD LEWIS CO. TN 05/02/2010 08:42 CST-6 Thunderstorm Wind 55 kts. EG 0 0 9.00K 0.00K
ERIN HOUSTON CO. TN 05/02/2010 09:00 CST-6 Flood 0 0 800.00K 1.00K
PLEASANT VIEW CHEATHAM CO. TN 05/02/2010 09:30 CST-6 Flood 0 0 12.500M 1.00K
BON AQUA HICKMAN CO. TN 05/02/2010 09:30 CST-6 Flood 1 0 3.600M 1.00K
SLAYDEN DICKSON CO. TN 05/02/2010 09:30 CST-6 Flood 0 0 1.400M 1.00K
KIMMINS LEWIS CO. TN 05/02/2010 09:42 CST-6 Flood 0 0 430.00K 1.00K
CHAPEL HILL MARSHALL CO. TN 05/02/2010 11:00 CST-6 Flood 0 0 83.00K 1.00K
LUTTS WAYNE CO. TN 05/02/2010 11:25 CST-6 Flood 0 0 0.00K 0.00K
MT HOPE WAYNE CO. TN 05/02/2010 11:52 CST-6 Flood 0 0 0.00K 0.00K
CROSS RD MACON CO. TN 05/02/2010 12:00 CST-6 Flood 0 0 450.00K 1.00K
HARTSVILLE TROUSDALE CO. TN 05/02/2010 12:00 CST-6 Flood 0 0 250.00K 1.00K
NOLENSVILLE WILLIAMSON CO. TN 05/02/2010 12:10 CST-6 Flood 0 0 10.000M 1.00K
FLATWOODS LAWRENCE CO. TN 05/02/2010 12:22 CST-6 Flood 0 0 150.00K 1.00K
OAKLAND MAURY CO. TN 05/02/2010 12:25 CST-6 Flood 0 0 1.400M 1.00K
GENTRY PUTNAM CO. TN 05/02/2010 13:15 CST-6 Thunderstorm Wind 50 kts. EG 0 0 1.00K 0.00K
HENRYVILLE LAWRENCE CO. TN 05/02/2010 13:27 CST-6 Thunderstorm Wind 60 kts. EG 0 0 15.00K 0.00K
LIVINGSTON OVERTON CO. TN 05/02/2010 16:20 CST-6 Thunderstorm Wind 50 kts. EG 0 0 1.00K 0.00K
ASHLAND WAYNE CO. TN 05/02/2010 16:35 CST-6 Flood 0 0 600.00K 1.00K
Totals: 18 1 1.572B 76.00K